Pagrindinis puslapis
METAR-TAF:

METAR-TAF

Oro uostai :

Izmiras, Turkija

platuma: 38-16N, ilguma: 027-09E, Aukštis: 125 m

Dabartinis oras

Ataskaita buvo paskelbta 30 minutes, ne 05:50 UTC
Vėjas 10 kt iš Šiaurės
Temperatūra 11°C
Drėgmė 54%
Slėgis 1013 hPa
Matomumas 10 km arba daugiau
nėra debesų žemiau 1500 m ir nėra kamuolinių lietaus debesų

METAR: LTBJ 100550Z 01010KT CAVOK 11/02 Q1013 NOSIG

Laikas: 09:20 (06:20 UTC)

Prognozė

Ataskaita buvo paskelbta 1 valandą ir 40 minutes, ne 04:40 UTC
Prognozė galioja nuo 10 metu 06 UTC su 11 metu 06 UTC
Vėjas 13 kt iš Šiaurės
Matomumas 10 km arba daugiau
nėra debesų žemiau 1500 m ir nėra kamuolinių lietaus debesų
Tapsmas
nuo 10 metu 06 UTC su 10 metu 09 UTC
Vėjas 17 kt iš Šiaurės su gūsio iki 27 kt
Tapsmas
nuo 10 metu 17 UTC su 10 metu 19 UTC
Vėjas 13 kt iš Šiaurės

TAF: LTBJ 100440Z 1006/1106 35013KT CAVOK BECMG 1006/1009 36017G27KT BECMG 1017/1019 35013KT

Orai ataskaitas ir orų prognozės (METAR, TAF).

turimą stotys yra geltonos ir raudonos taškus žemėlapyje.

Perkelti pele per norėdami pamatyti stoties vardą.

Tada spustelėkite, norėdami matyti oro stebėjimo ir prognozės.

Norėdami pakeisti žemėlapį: spustelėkite ant žalios mygtukų su juodo kryžiaus žemyn,; žalią mygtuką su brūkšneliu, jei norite nutolinti; arba žalių rodyklių gretimoms žemėlapius.


METAR-TAF: